sensor_id;sensor_type;location;lat;lon;timestamp;pressure;altitude;pressure_sealevel;temperature;humidity
80777;BME280;70169;51.262;6.336;2023-06-10T00:00:31;100798.00;;;21.00;56.13
80777;BME280;70169;51.262;6.336;2023-06-10T00:02:47;100798.53;;;20.97;55.97
80777;BME280;70169;51.262;6.336;2023-06-10T00:05:03;100795.31;;;20.95;56.01
80777;BME280;70169;51.262;6.336;2023-06-10T00:07:18;100793.69;;;20.94;56.86
80777;BME280;70169;51.262;6.336;2023-06-10T00:09:35;100793.44;;;20.90;56.71
80777;BME280;70169;51.262;6.336;2023-06-10T00:11:52;100791.81;;;20.84;57.42
80777;BME280;70169;51.262;6.336;2023-06-10T00:14:07;100801.75;;;20.84;57.47
80777;BME280;70169;51.262;6.336;2023-06-10T00:16:23;100792.88;;;20.78;57.55
80777;BME280;70169;51.262;6.336;2023-06-10T00:18:38;100792.34;;;20.71;57.69
80777;BME280;70169;51.262;6.336;2023-06-10T00:20:53;100793.66;;;20.68;57.21
80777;BME280;70169;51.262;6.336;2023-06-10T00:23:10;100798.50;;;20.66;57.53
80777;BME280;70169;51.262;6.336;2023-06-10T00:25:25;100797.38;;;20.62;58.08
80777;BME280;70169;51.262;6.336;2023-06-10T00:27:40;100794.41;;;20.58;58.23
80777;BME280;70169;51.262;6.336;2023-06-10T00:29:56;100799.50;;;20.55;58.52
80777;BME280;70169;51.262;6.336;2023-06-10T00:32:11;100794.13;;;20.50;58.90
80777;BME280;70169;51.262;6.336;2023-06-10T00:34:27;100796.78;;;20.45;58.85
80777;BME280;70169;51.262;6.336;2023-06-10T00:36:42;100796.50;;;20.41;59.10
80777;BME280;70169;51.262;6.336;2023-06-10T00:38:58;100795.44;;;20.37;59.09
80777;BME280;70169;51.262;6.336;2023-06-10T00:41:14;100800.50;;;20.33;59.37
80777;BME280;70169;51.262;6.336;2023-06-10T00:43:29;100807.47;;;20.29;59.57
80777;BME280;70169;51.262;6.336;2023-06-10T00:45:44;100802.91;;;20.25;59.89
80777;BME280;70169;51.262;6.336;2023-06-10T00:48:00;100795.09;;;20.18;60.06
80777;BME280;70169;51.262;6.336;2023-06-10T00:50:16;100803.41;;;20.16;60.37
80777;BME280;70169;51.262;6.336;2023-06-10T00:52:31;100799.88;;;20.11;60.25
80777;BME280;70169;51.262;6.336;2023-06-10T00:54:48;100802.53;;;20.06;60.46
80777;BME280;70169;51.262;6.336;2023-06-10T00:57:04;100804.94;;;20.02;60.74
80777;BME280;70169;51.262;6.336;2023-06-10T00:59:19;100807.59;;;19.97;60.62
80777;BME280;70169;51.262;6.336;2023-06-10T01:01:35;100804.63;;;19.93;60.57
80777;BME280;70169;51.262;6.336;2023-06-10T01:03:52;100804.06;;;19.91;60.61
80777;BME280;70169;51.262;6.336;2023-06-10T01:06:14;100805.69;;;19.87;60.16
80777;BME280;70169;51.262;6.336;2023-06-10T01:08:52;100800.56;;;19.85;60.82
80777;BME280;70169;51.262;6.336;2023-06-10T01:11:19;100803.50;;;19.84;60.63
80777;BME280;70169;51.262;6.336;2023-06-10T01:13:37;100794.91;;;19.82;60.51
80777;BME280;70169;51.262;6.336;2023-06-10T01:15:55;100802.41;;;19.80;60.57
80777;BME280;70169;51.262;6.336;2023-06-10T01:18:11;100795.94;;;19.76;60.74
80777;BME280;70169;51.262;6.336;2023-06-10T01:20:32;100805.81;;;19.75;60.97
80777;BME280;70169;51.262;6.336;2023-06-10T01:22:48;100804.47;;;19.73;60.63
80777;BME280;70169;51.262;6.336;2023-06-10T01:25:03;100809.00;;;19.72;60.36
80777;BME280;70169;51.262;6.336;2023-06-10T01:27:22;100810.09;;;19.71;60.67
80777;BME280;70169;51.262;6.336;2023-06-10T01:29:42;100802.81;;;19.66;60.45
80777;BME280;70169;51.262;6.336;2023-06-10T01:32:27;100805.75;;;19.65;60.10
80777;BME280;70169;51.262;6.336;2023-06-10T01:34:44;100801.72;;;19.62;60.15
80777;BME280;70169;51.262;6.336;2023-06-10T01:37:01;100805.47;;;19.61;60.02
80777;BME280;70169;51.262;6.336;2023-06-10T01:39:20;100809.75;;;19.62;60.15
80777;BME280;70169;51.262;6.336;2023-06-10T01:41:37;100799.53;;;19.59;60.16
80777;BME280;70169;51.262;6.336;2023-06-10T01:43:54;100805.47;;;19.61;60.38
80777;BME280;70169;51.262;6.336;2023-06-10T01:46:10;100804.91;;;19.59;60.62
80777;BME280;70169;51.262;6.336;2023-06-10T01:48:26;100806.00;;;19.58;60.23
80777;BME280;70169;51.262;6.336;2023-06-10T01:50:42;100808.13;;;19.56;60.23
80777;BME280;70169;51.262;6.336;2023-06-10T01:52:59;100809.19;;;19.55;59.35
80777;BME280;70169;51.262;6.336;2023-06-10T01:55:14;100807.56;;;19.54;59.29
80777;BME280;70169;51.262;6.336;2023-06-10T01:57:30;100805.72;;;19.55;59.70
80777;BME280;70169;51.262;6.336;2023-06-10T01:59:45;100811.63;;;19.57;59.77
80777;BME280;70169;51.262;6.336;2023-06-10T02:02:01;100817.78;;;19.57;59.56
80777;BME280;70169;51.262;6.336;2023-06-10T02:04:17;100814.56;;;19.55;58.85
80777;BME280;70169;51.262;6.336;2023-06-10T02:06:32;100810.25;;;19.54;59.06
80777;BME280;70169;51.262;6.336;2023-06-10T02:08:49;100816.19;;;19.56;59.39
80777;BME280;70169;51.262;6.336;2023-06-10T02:11:04;100821.28;;;19.58;59.67
80777;BME280;70169;51.262;6.336;2023-06-10T02:13:20;100818.03;;;19.56;59.54
80777;BME280;70169;51.262;6.336;2023-06-10T02:15:35;100819.38;;;19.53;59.42
80777;BME280;70169;51.262;6.336;2023-06-10T02:17:51;100820.69;;;19.50;59.31
80777;BME280;70169;51.262;6.336;2023-06-10T02:20:07;100822.31;;;19.52;59.40
80777;BME280;70169;51.262;6.336;2023-06-10T02:22:25;100823.09;;;19.52;59.40
80777;BME280;70169;51.262;6.336;2023-06-10T02:24:41;100821.47;;;19.51;60.22
80777;BME280;70169;51.262;6.336;2023-06-10T02:26:57;100823.63;;;19.49;60.40
80777;BME280;70169;51.262;6.336;2023-06-10T02:29:15;100825.75;;;19.47;60.77
80777;BME280;70169;51.262;6.336;2023-06-10T02:31:30;100826.50;;;19.42;60.87
80777;BME280;70169;51.262;6.336;2023-06-10T02:33:46;100825.91;;;19.35;61.18
80777;BME280;70169;51.262;6.336;2023-06-10T02:36:01;100828.28;;;19.31;61.44
80777;BME280;70169;51.262;6.336;2023-06-10T02:38:16;100822.66;;;19.28;61.50
80777;BME280;70169;51.262;6.336;2023-06-10T02:40:32;100827.97;;;19.23;61.46
80777;BME280;70169;51.262;6.336;2023-06-10T02:42:47;100829.78;;;19.17;61.69
80777;BME280;70169;51.262;6.336;2023-06-10T02:45:03;100828.94;;;19.11;62.01
80777;BME280;70169;51.262;6.336;2023-06-10T02:47:18;100834.00;;;19.08;62.12
80777;BME280;70169;51.262;6.336;2023-06-10T02:49:34;100826.72;;;19.03;62.45
80777;BME280;70169;51.262;6.336;2023-06-10T02:51:52;100829.91;;;19.00;62.53
80777;BME280;70169;51.262;6.336;2023-06-10T02:54:08;100826.66;;;18.98;62.64
80777;BME280;70169;51.262;6.336;2023-06-10T02:56:24;100835.47;;;18.93;62.78
80777;BME280;70169;51.262;6.336;2023-06-10T02:58:40;100831.13;;;18.87;63.11
80777;BME280;70169;51.262;6.336;2023-06-10T03:00:56;100825.22;;;18.85;63.00
80777;BME280;70169;51.262;6.336;2023-06-10T03:03:13;100829.97;;;18.83;63.49
80777;BME280;70169;51.262;6.336;2023-06-10T03:05:29;100830.47;;;18.80;63.65
80777;BME280;70169;51.262;6.336;2023-06-10T03:07:44;100831.47;;;18.74;63.71
80777;BME280;70169;51.262;6.336;2023-06-10T03:10:01;100830.91;;;18.72;63.43
80777;BME280;70169;51.262;6.336;2023-06-10T03:12:16;100831.66;;;18.67;63.28
80777;BME280;70169;51.262;6.336;2023-06-10T03:14:32;100826.56;;;18.66;63.70
80777;BME280;70169;51.262;6.336;2023-06-10T03:16:47;100830.81;;;18.62;63.68
80777;BME280;70169;51.262;6.336;2023-06-10T03:19:03;100828.63;;;18.58;63.83
80777;BME280;70169;51.262;6.336;2023-06-10T03:21:19;100837.97;;;18.56;63.78
80777;BME280;70169;51.262;6.336;2023-06-10T03:23:34;100840.09;;;18.54;63.97
80777;BME280;70169;51.262;6.336;2023-06-10T03:25:50;100836.59;;;18.53;64.26
80777;BME280;70169;51.262;6.336;2023-06-10T03:28:05;100834.72;;;18.54;64.17
80777;BME280;70169;51.262;6.336;2023-06-10T03:30:20;100841.38;;;18.51;64.06
80777;BME280;70169;51.262;6.336;2023-06-10T03:32:36;100839.72;;;18.45;64.18
80777;BME280;70169;51.262;6.336;2023-06-10T03:34:51;100839.72;;;18.45;64.27
80777;BME280;70169;51.262;6.336;2023-06-10T03:37:13;100843.19;;;18.46;64.43
80777;BME280;70169;51.262;6.336;2023-06-10T03:39:32;100847.75;;;18.45;64.66
80777;BME280;70169;51.262;6.336;2023-06-10T03:41:47;100846.13;;;18.44;64.66
80777;BME280;70169;51.262;6.336;2023-06-10T03:44:03;100832.44;;;18.40;64.54
80777;BME280;70169;51.262;6.336;2023-06-10T03:46:19;100843.16;;;18.40;64.57
80777;BME280;70169;51.262;6.336;2023-06-10T03:48:34;100845.81;;;18.40;64.77
80777;BME280;70169;51.262;6.336;2023-06-10T03:50:49;100849.53;;;18.39;64.61
80777;BME280;70169;51.262;6.336;2023-06-10T03:53:07;100842.91;;;18.42;64.49
80777;BME280;70169;51.262;6.336;2023-06-10T03:55:23;100847.66;;;18.40;64.78
80777;BME280;70169;51.262;6.336;2023-06-10T03:57:38;100850.34;;;18.40;65.03
80777;BME280;70169;51.262;6.336;2023-06-10T03:59:53;100851.97;;;18.41;65.01
80777;BME280;70169;51.262;6.336;2023-06-10T04:02:09;100855.69;;;18.40;65.28
80777;BME280;70169;51.262;6.336;2023-06-10T04:04:24;100856.78;;;18.39;65.45
80777;BME280;70169;51.262;6.336;2023-06-10T04:06:40;100853.50;;;18.37;65.72
80777;BME280;70169;51.262;6.336;2023-06-10T04:08:56;100856.47;;;18.35;65.27
80777;BME280;70169;51.262;6.336;2023-06-10T04:11:14;100851.34;;;18.34;65.74
80777;BME280;70169;51.262;6.336;2023-06-10T04:13:29;100854.03;;;18.34;65.81
80777;BME280;70169;51.262;6.336;2023-06-10T04:15:45;100861.22;;;18.33;65.66
80777;BME280;70169;51.262;6.336;2023-06-10T04:18:00;100853.44;;;18.32;65.56
80777;BME280;70169;51.262;6.336;2023-06-10T04:20:18;100861.22;;;18.33;65.57
80777;BME280;70169;51.262;6.336;2023-06-10T04:22:34;100861.53;;;18.37;65.32
80777;BME280;70169;51.262;6.336;2023-06-10T04:24:49;100870.16;;;18.39;65.71
80777;BME280;70169;51.262;6.336;2023-06-10T04:27:05;100866.66;;;18.38;65.82
80777;BME280;70169;51.262;6.336;2023-06-10T04:29:20;100864.31;;;18.42;65.39
80777;BME280;70169;51.262;6.336;2023-06-10T04:31:36;100866.72;;;18.44;65.53
80777;BME280;70169;51.262;6.336;2023-06-10T04:33:51;100872.41;;;18.47;66.35
80777;BME280;70169;51.262;6.336;2023-06-10T04:36:06;100866.53;;;18.50;65.75
80777;BME280;70169;51.262;6.336;2023-06-10T04:38:22;100858.50;;;18.50;65.98
80777;BME280;70169;51.262;6.336;2023-06-10T04:40:37;100874.38;;;18.57;66.02
80777;BME280;70169;51.262;6.336;2023-06-10T04:42:52;100867.41;;;18.56;65.21
80777;BME280;70169;51.262;6.336;2023-06-10T04:45:08;100876.31;;;18.62;65.13
80777;BME280;70169;51.262;6.336;2023-06-10T04:47:23;100863.25;;;18.65;65.33
80777;BME280;70169;51.262;6.336;2023-06-10T04:49:39;100865.16;;;18.70;65.13
80777;BME280;70169;51.262;6.336;2023-06-10T04:51:54;100858.50;;;18.72;64.98
80777;BME280;70169;51.262;6.336;2023-06-10T04:54:09;100866.28;;;18.74;64.64
80777;BME280;70169;51.262;6.336;2023-06-10T04:56:25;100865.28;;;18.80;64.60
80777;BME280;70169;51.262;6.336;2023-06-10T04:58:40;100867.22;;;18.85;64.39
80777;BME280;70169;51.262;6.336;2023-06-10T05:00:56;100863.00;;;18.89;64.13
80777;BME280;70169;51.262;6.336;2023-06-10T05:03:11;100866.22;;;18.91;64.25
80777;BME280;70169;51.262;6.336;2023-06-10T05:05:26;100866.78;;;18.93;63.78
80777;BME280;70169;51.262;6.336;2023-06-10T05:07:42;100871.88;;;18.94;64.10
80777;BME280;70169;51.262;6.336;2023-06-10T05:09:57;100870.84;;;18.95;64.27
80777;BME280;70169;51.262;6.336;2023-06-10T05:12:12;100866.03;;;18.98;64.48
80777;BME280;70169;51.262;6.336;2023-06-10T05:14:28;100868.22;;;19.01;64.78
80777;BME280;70169;51.262;6.336;2023-06-10T05:16:43;100867.69;;;19.04;64.29
80777;BME280;70169;51.262;6.336;2023-06-10T05:18:58;100865.03;;;19.04;63.56
80777;BME280;70169;51.262;6.336;2023-06-10T05:21:13;100871.25;;;19.09;64.04
80777;BME280;70169;51.262;6.336;2023-06-10T05:23:29;100872.34;;;19.13;64.27
80777;BME280;70169;51.262;6.336;2023-06-10T05:25:44;100876.72;;;19.20;64.57
80777;BME280;70169;51.262;6.336;2023-06-10T05:27:59;100877.25;;;19.22;63.93
80777;BME280;70169;51.262;6.336;2023-06-10T05:30:15;100871.88;;;19.22;63.46
80777;BME280;70169;51.262;6.336;2023-06-10T05:32:31;100884.00;;;19.24;64.06
80777;BME280;70169;51.262;6.336;2023-06-10T05:34:47;100878.91;;;19.28;63.98
80777;BME280;70169;51.262;6.336;2023-06-10T05:37:02;100879.72;;;19.28;64.06
80777;BME280;70169;51.262;6.336;2023-06-10T05:39:18;100882.72;;;19.32;63.99
80777;BME280;70169;51.262;6.336;2023-06-10T05:41:33;100883.28;;;19.34;64.12
80777;BME280;70169;51.262;6.336;2023-06-10T05:43:49;100876.56;;;19.37;63.75
80777;BME280;70169;51.262;6.336;2023-06-10T05:46:04;100879.31;;;19.42;64.09
80777;BME280;70169;51.262;6.336;2023-06-10T05:48:19;100883.09;;;19.46;63.46
80777;BME280;70169;51.262;6.336;2023-06-10T05:50:35;100883.66;;;19.48;63.15
80777;BME280;70169;51.262;6.336;2023-06-10T05:52:53;100890.66;;;19.54;63.23
80777;BME280;70169;51.262;6.336;2023-06-10T05:55:10;100887.22;;;19.59;63.08
80777;BME280;70169;51.262;6.336;2023-06-10T05:57:25;100881.66;;;19.65;63.21
80777;BME280;70169;51.262;6.336;2023-06-10T05:59:41;100891.75;;;19.85;63.54
80777;BME280;70169;51.262;6.336;2023-06-10T06:01:56;100890.34;;;20.20;62.61
80777;BME280;70169;51.262;6.336;2023-06-10T06:04:12;100893.16;;;20.46;61.79
80777;BME280;70169;51.262;6.336;2023-06-10T06:06:27;100886.25;;;20.55;61.17
80777;BME280;70169;51.262;6.336;2023-06-10T06:08:43;100891.63;;;20.61;61.40
80777;BME280;70169;51.262;6.336;2023-06-10T06:10:58;100893.50;;;20.60;61.30
80777;BME280;70169;51.262;6.336;2023-06-10T06:13:13;100890.03;;;20.59;61.33
80777;BME280;70169;51.262;6.336;2023-06-10T06:15:29;100883.03;;;20.58;60.78
80777;BME280;70169;51.262;6.336;2023-06-10T06:17:44;100895.13;;;20.61;60.21
80777;BME280;70169;51.262;6.336;2023-06-10T06:19:59;100888.13;;;20.60;59.79
80777;BME280;70169;51.262;6.336;2023-06-10T06:22:14;100897.00;;;20.61;60.11
80777;BME280;70169;51.262;6.336;2023-06-10T06:24:30;100890.88;;;20.65;60.40
80777;BME280;70169;51.262;6.336;2023-06-10T06:26:45;100898.41;;;20.73;60.73
80777;BME280;70169;51.262;6.336;2023-06-10T06:29:00;100893.63;;;20.81;60.43
80777;BME280;70169;51.262;6.336;2023-06-10T06:31:16;100907.34;;;20.89;59.92
80777;BME280;70169;51.262;6.336;2023-06-10T06:33:31;100901.72;;;20.96;60.00
80777;BME280;70169;51.262;6.336;2023-06-10T06:35:47;100895.84;;;21.09;60.55
80777;BME280;70169;51.262;6.336;2023-06-10T06:38:02;100906.06;;;21.23;60.04
80777;BME280;70169;51.262;6.336;2023-06-10T06:40:19;100902.88;;;21.31;60.26
80777;BME280;70169;51.262;6.336;2023-06-10T06:42:34;100907.72;;;21.39;60.61
80777;BME280;70169;51.262;6.336;2023-06-10T06:44:49;100913.16;;;21.49;60.58
80777;BME280;70169;51.262;6.336;2023-06-10T06:47:05;100910.72;;;21.58;59.48
80777;BME280;70169;51.262;6.336;2023-06-10T06:49:20;100906.69;;;21.66;58.68
80777;BME280;70169;51.262;6.336;2023-06-10T06:51:36;100909.91;;;21.73;57.21
80777;BME280;70169;51.262;6.336;2023-06-10T06:53:52;100911.78;;;21.78;57.78
80777;BME280;70169;51.262;6.336;2023-06-10T06:56:10;100910.97;;;21.82;57.84
80777;BME280;70169;51.262;6.336;2023-06-10T06:58:26;100919.03;;;21.88;58.52
80777;BME280;70169;51.262;6.336;2023-06-10T07:00:41;100906.66;;;21.92;58.35
80777;BME280;70169;51.262;6.336;2023-06-10T07:02:56;100911.78;;;21.93;58.28
80777;BME280;70169;51.262;6.336;2023-06-10T07:05:12;100911.50;;;22.00;58.71
80777;BME280;70169;51.262;6.336;2023-06-10T07:07:27;100912.28;;;22.06;58.62
80777;BME280;70169;51.262;6.336;2023-06-10T07:09:42;100919.00;;;22.08;57.95
80777;BME280;70169;51.262;6.336;2023-06-10T07:11:58;100918.47;;;22.11;57.92
80777;BME280;70169;51.262;6.336;2023-06-10T07:14:13;100921.69;;;22.18;58.81
80777;BME280;70169;51.262;6.336;2023-06-10T07:16:30;100922.22;;;22.31;56.65
80777;BME280;70169;51.262;6.336;2023-06-10T07:18:45;100919.00;;;22.34;56.93
80777;BME280;70169;51.262;6.336;2023-06-10T07:21:00;100921.63;;;22.44;57.63
80777;BME280;70169;51.262;6.336;2023-06-10T07:23:16;100922.16;;;22.51;58.20
80777;BME280;70169;51.262;6.336;2023-06-10T07:25:31;100911.66;;;22.55;58.01
80777;BME280;70169;51.262;6.336;2023-06-10T07:27:46;100910.00;;;22.64;58.34
80777;BME280;70169;51.262;6.336;2023-06-10T07:30:03;100911.03;;;22.68;57.90
80777;BME280;70169;51.262;6.336;2023-06-10T07:32:19;100914.25;;;22.75;55.84
80777;BME280;70169;51.262;6.336;2023-06-10T07:34:35;100906.66;;;22.83;57.13
80777;BME280;70169;51.262;6.336;2023-06-10T07:36:51;100907.97;;;22.90;57.06
80777;BME280;70169;51.262;6.336;2023-06-10T07:39:06;100907.97;;;22.90;56.18
80777;BME280;70169;51.262;6.336;2023-06-10T07:41:25;100912.78;;;22.99;54.66
80777;BME280;70169;51.262;6.336;2023-06-10T07:43:40;100916.03;;;23.01;53.81
80777;BME280;70169;51.262;6.336;2023-06-10T07:45:55;100908.47;;;23.08;54.37
80777;BME280;70169;51.262;6.336;2023-06-10T07:48:12;100917.56;;;23.17;54.71
80777;BME280;70169;51.262;6.336;2023-06-10T07:50:27;100919.94;;;23.24;53.79
80777;BME280;70169;51.262;6.336;2023-06-10T07:52:42;100915.31;;;23.29;54.63
80777;BME280;70169;51.262;6.336;2023-06-10T07:54:57;100921.44;;;23.40;55.24
80777;BME280;70169;51.262;6.336;2023-06-10T07:57:13;100912.81;;;23.43;52.52
80777;BME280;70169;51.262;6.336;2023-06-10T07:59:28;100916.78;;;23.51;52.93
80777;BME280;70169;51.262;6.336;2023-06-10T08:01:44;100919.63;;;23.65;53.49
80777;BME280;70169;51.262;6.336;2023-06-10T08:03:59;100918.50;;;23.71;52.66
80777;BME280;70169;51.262;6.336;2023-06-10T08:06:15;100913.59;;;23.78;52.58
80777;BME280;70169;51.262;6.336;2023-06-10T08:08:32;100925.72;;;23.86;52.56
80777;BME280;70169;51.262;6.336;2023-06-10T08:10:47;100912.69;;;23.93;52.49
80777;BME280;70169;51.262;6.336;2023-06-10T08:13:04;100918.78;;;24.04;51.27
80777;BME280;70169;51.262;6.336;2023-06-10T08:15:19;100927.28;;;24.16;50.83
80777;BME280;70169;51.262;6.336;2023-06-10T08:17:35;100918.88;;;24.23;49.90
80777;BME280;70169;51.262;6.336;2023-06-10T08:19:50;100914.69;;;24.36;50.52
80777;BME280;70169;51.262;6.336;2023-06-10T08:22:05;100921.84;;;24.46;47.48
80777;BME280;70169;51.262;6.336;2023-06-10T08:24:21;100921.25;;;24.49;48.45
80777;BME280;70169;51.262;6.336;2023-06-10T08:26:38;100915.00;;;24.53;47.87
80777;BME280;70169;51.262;6.336;2023-06-10T08:28:53;100922.25;;;24.58;47.20
80777;BME280;70169;51.262;6.336;2023-06-10T08:31:10;100921.56;;;24.71;49.62
80777;BME280;70169;51.262;6.336;2023-06-10T08:33:25;100922.22;;;24.82;45.96
80777;BME280;70169;51.262;6.336;2023-06-10T08:35:41;100915.66;;;24.88;46.44
80777;BME280;70169;51.262;6.336;2023-06-10T08:37:56;100922.03;;;24.98;48.04
80777;BME280;70169;51.262;6.336;2023-06-10T08:40:12;100911.44;;;25.01;48.63
80777;BME280;70169;51.262;6.336;2023-06-10T08:42:39;100920.28;;;25.07;46.06
80777;BME280;70169;51.262;6.336;2023-06-10T08:44:55;100918.81;;;25.15;46.33
80777;BME280;70169;51.262;6.336;2023-06-10T08:47:15;100911.94;;;25.22;46.72
80777;BME280;70169;51.262;6.336;2023-06-10T08:49:34;100920.53;;;25.29;44.93
80777;BME280;70169;51.262;6.336;2023-06-10T08:51:59;100920.25;;;25.26;44.44
80777;BME280;70169;51.262;6.336;2023-06-10T08:54:20;100922.16;;;25.25;46.10
80777;BME280;70169;51.262;6.336;2023-06-10T08:56:39;100924.03;;;25.30;46.57
80777;BME280;70169;51.262;6.336;2023-06-10T08:58:55;100918.03;;;25.33;45.43
80777;BME280;70169;51.262;6.336;2023-06-10T09:01:12;100915.63;;;25.32;45.02
80777;BME280;70169;51.262;6.336;2023-06-10T09:03:28;100919.56;;;25.39;47.19
80777;BME280;70169;51.262;6.336;2023-06-10T09:05:43;100916.47;;;25.46;48.01
80777;BME280;70169;51.262;6.336;2023-06-10T09:08:00;100912.06;;;25.50;47.10
80777;BME280;70169;51.262;6.336;2023-06-10T09:10:16;100909.78;;;25.57;47.75
80777;BME280;70169;51.262;6.336;2023-06-10T09:12:31;100914.13;;;25.58;47.03
80777;BME280;70169;51.262;6.336;2023-06-10T09:14:47;100907.59;;;25.59;47.26
80777;BME280;70169;51.262;6.336;2023-06-10T09:17:03;100919.66;;;25.67;47.24
80777;BME280;70169;51.262;6.336;2023-06-10T09:19:19;100919.84;;;25.71;46.77
80777;BME280;70169;51.262;6.336;2023-06-10T09:21:36;100908.72;;;25.72;47.39
80777;BME280;70169;51.262;6.336;2023-06-10T09:23:51;100918.88;;;25.80;48.73
80777;BME280;70169;51.262;6.336;2023-06-10T09:26:08;100913.06;;;25.73;46.36
80777;BME280;70169;51.262;6.336;2023-06-10T09:28:25;100919.66;;;25.67;46.62
80777;BME280;70169;51.262;6.336;2023-06-10T09:30:41;100912.63;;;25.66;47.97
80777;BME280;70169;51.262;6.336;2023-06-10T09:32:58;100916.66;;;25.69;47.78
80777;BME280;70169;51.262;6.336;2023-06-10T09:35:13;100911.53;;;25.67;47.86
80777;BME280;70169;51.262;6.336;2023-06-10T09:37:29;100915.47;;;25.75;48.43
80777;BME280;70169;51.262;6.336;2023-06-10T09:39:44;100908.22;;;25.70;47.99
80777;BME280;70169;51.262;6.336;2023-06-10T09:42:00;100913.66;;;25.70;47.25
80777;BME280;70169;51.262;6.336;2023-06-10T09:44:17;100916.06;;;25.72;47.85
80777;BME280;70169;51.262;6.336;2023-06-10T09:46:32;100913.34;;;25.72;47.29
80777;BME280;70169;51.262;6.336;2023-06-10T09:48:48;100911.13;;;25.74;47.05
80777;BME280;70169;51.262;6.336;2023-06-10T09:51:09;100914.56;;;25.79;46.33
80777;BME280;70169;51.262;6.336;2023-06-10T09:53:25;100907.25;;;25.80;46.59
80777;BME280;70169;51.262;6.336;2023-06-10T09:55:41;100901.03;;;25.79;45.98
80777;BME280;70169;51.262;6.336;2023-06-10T09:57:58;100904.53;;;25.80;47.10
80777;BME280;70169;51.262;6.336;2023-06-10T10:00:14;100900.22;;;25.79;46.64
80777;BME280;70169;51.262;6.336;2023-06-10T10:02:29;100894.81;;;25.79;46.80
80777;BME280;70169;51.262;6.336;2023-06-10T10:04:45;100905.34;;;25.80;47.31
80777;BME280;70169;51.262;6.336;2023-06-10T10:07:00;100902.03;;;25.83;47.28
80777;BME280;70169;51.262;6.336;2023-06-10T10:09:15;100909.06;;;25.84;45.56
80777;BME280;70169;51.262;6.336;2023-06-10T10:11:32;100900.94;;;25.84;46.15
80777;BME280;70169;51.262;6.336;2023-06-10T10:13:50;100900.53;;;25.91;47.99
80777;BME280;70169;51.262;6.336;2023-06-10T10:16:11;100908.31;;;25.98;45.48
80777;BME280;70169;51.262;6.336;2023-06-10T10:18:31;100902.59;;;25.99;46.13
80777;BME280;70169;51.262;6.336;2023-06-10T10:20:48;100900.09;;;26.03;46.66
80777;BME280;70169;51.262;6.336;2023-06-10T10:23:06;100904.91;;;26.06;46.38
80777;BME280;70169;51.262;6.336;2023-06-10T10:25:26;100895.97;;;26.06;46.21
80777;BME280;70169;51.262;6.336;2023-06-10T10:27:52;100901.00;;;26.12;46.92
80777;BME280;70169;51.262;6.336;2023-06-10T10:30:11;100901.72;;;26.18;45.27
80777;BME280;70169;51.262;6.336;2023-06-10T10:32:56;100883.75;;;26.22;44.86
80777;BME280;70169;51.262;6.336;2023-06-10T10:35:17;100884.22;;;26.24;45.22
80777;BME280;70169;51.262;6.336;2023-06-10T10:37:35;100886.25;;;26.32;45.56
80777;BME280;70169;51.262;6.336;2023-06-10T10:39:50;100890.75;;;26.37;44.83
80777;BME280;70169;51.262;6.336;2023-06-10T10:42:07;100875.22;;;26.43;44.17
80777;BME280;70169;51.262;6.336;2023-06-10T10:44:25;100871.59;;;26.47;44.74
80777;BME280;70169;51.262;6.336;2023-06-10T10:46:42;100877.19;;;26.51;43.00
80777;BME280;70169;51.262;6.336;2023-06-10T10:48:58;100882.91;;;26.49;43.05
80777;BME280;70169;51.262;6.336;2023-06-10T10:51:15;100869.06;;;26.51;42.85
80777;BME280;70169;51.262;6.336;2023-06-10T10:53:30;100871.97;;;26.54;41.79
80777;BME280;70169;51.262;6.336;2023-06-10T10:55:58;100875.56;;;26.64;43.89
80777;BME280;70169;51.262;6.336;2023-06-10T10:58:13;100861.13;;;26.68;43.49
80777;BME280;70169;51.262;6.336;2023-06-10T11:00:43;100866.44;;;26.73;43.66
80777;BME280;70169;51.262;6.336;2023-06-10T11:03:08;100856.78;;;26.81;43.83
80777;BME280;70169;51.262;6.336;2023-06-10T11:05:33;100861.00;;;26.87;43.61
80777;BME280;70169;51.262;6.336;2023-06-10T11:07:54;100859.56;;;26.90;42.95
80777;BME280;70169;51.262;6.336;2023-06-10T11:10:13;100860.75;;;26.98;42.96
80777;BME280;70169;51.262;6.336;2023-06-10T11:14:55;100855.50;;;27.01;39.85
80777;BME280;70169;51.262;6.336;2023-06-10T11:17:20;100853.59;;;27.02;40.28
80777;BME280;70169;51.262;6.336;2023-06-10T11:19:37;100851.69;;;27.02;40.50
80777;BME280;70169;51.262;6.336;2023-06-10T11:22:01;100851.38;;;27.04;40.58
80777;BME280;70169;51.262;6.336;2023-06-10T11:24:16;100846.94;;;27.08;40.97
80777;BME280;70169;51.262;6.336;2023-06-10T11:26:32;100837.56;;;27.14;41.48
80777;BME280;70169;51.262;6.336;2023-06-10T11:31:02;100846.69;;;27.18;40.18
80777;BME280;70169;51.262;6.336;2023-06-10T11:33:19;100841.44;;;27.22;40.91
80777;BME280;70169;51.262;6.336;2023-06-10T11:35:35;100828.56;;;27.27;39.60
80777;BME280;70169;51.262;6.336;2023-06-10T11:37:50;100839.50;;;27.36;39.45
80777;BME280;70169;51.262;6.336;2023-06-10T11:40:06;100829.94;;;27.39;40.58
80777;BME280;70169;51.262;6.336;2023-06-10T11:42:22;100835.22;;;27.44;38.54
80777;BME280;70169;51.262;6.336;2023-06-10T11:44:37;100824.69;;;27.42;39.43
80777;BME280;70169;51.262;6.336;2023-06-10T11:46:56;100832.50;;;27.44;38.83
80777;BME280;70169;51.262;6.336;2023-06-10T11:49:11;100831.91;;;27.47;38.68
80777;BME280;70169;51.262;6.336;2023-06-10T11:51:42;100825.22;;;27.53;38.01
80777;BME280;70169;51.262;6.336;2023-06-10T11:54:04;100828.13;;;27.57;38.23
80777;BME280;70169;51.262;6.336;2023-06-10T11:56:23;100829.59;;;27.63;39.38
80777;BME280;70169;51.262;6.336;2023-06-10T11:58:43;100826.56;;;27.64;37.98